Endeavor — WDB3177 — position and weather

sailwx.info

Track history (hours):
 
Tides and Currents Weather Stations Pressure Air Temp Water Temp Dewpoint Dewpoint Depression Visibility Wind Speed Wind Dir Waves Ship Positions

Endeavor

Owner: TAMPA TUGS LLC, TAMPA, FL. More information available from US FCC via Universal Licensing System and Coast Guard Vessel Documentation Center.

Last reported at 2018-May-15 14:20 UTC. Time now 2018-Jun-20 07:23 UTC.
Position N 27°53' W 082°27'.
Warning: this ship's position is 35 days out of date.

Length 28 m; draft 5.1 m.

Type: Tug. MMSI: 366884240.

Date/timePositionNaut miles runAvg speedWind from/ knotsBaromVisibWave heightAir tempDewpointWater temp
2018-May-15 14:20N 27°53' W 082°27'2 6.1
2018-May-15 14:01N 27°55' W 082°26'1 2.6
2018-May-15 13:30N 27°56' W 082°26'0 0.0
2018-May-15 13:00N 27°56' W 082°26'0 0.0
2018-May-15 12:30N 27°56' W 082°26'0 0.0
2018-May-15 12:00N 27°56' W 082°26'2 3.5
2018-May-15 11:30N 27°54' W 082°26'0 0.1
2018-May-15 11:00N 27°54' W 082°26'1 1.0
2018-May-15 10:30N 27°54' W 082°26'1 1.4
2018-May-15 10:00N 27°53' W 082°26'3 5.5
2018-May-15 09:30N 27°56' W 082°26'0 0.0
2018-May-15 09:01N 27°56' W 082°26'0 0.0
2018-May-15 08:31N 27°56' W 082°26'0 0.0
2018-May-15 08:01N 27°56' W 082°26'0 0.0
2018-May-15 07:31N 27°56' W 082°26'0 0.0
2018-May-15 07:01N 27°56' W 082°26'0 0.0
2018-May-15 06:30N 27°56' W 082°26'0 0.0
2018-May-15 06:01N 27°56' W 082°26'0 0.0
2018-May-15 05:30N 27°56' W 082°26'0 0.0
2018-May-15 05:01N 27°56' W 082°26'0 0.0
2018-May-15 04:31N 27°56' W 082°26'0 0.0
2018-May-15 04:01N 27°56' W 082°26'0 0.0
2018-May-15 03:31N 27°56' W 082°26'0 0.0
2018-May-15 03:01N 27°56' W 082°26'0 0.0
2018-May-15 02:30N 27°56' W 082°26'0 0.0
2018-May-15 02:00N 27°56' W 082°26'0 0.0
2018-May-15 01:31N 27°56' W 082°26'0 0.0
2018-May-15 01:00N 27°56' W 082°26'0 0.0
2018-May-15 00:30N 27°56' W 082°26'0 0.0
2018-May-15 00:00N 27°56' W 082°26'0 0.0
2018-May-14 23:31N 27°56' W 082°26'0 0.0
2018-May-14 23:01N 27°56' W 082°26'0 0.0
2018-May-14 22:30N 27°56' W 082°26'0 0.0
2018-May-14 22:00N 27°56' W 082°26'0 0.0
2018-May-14 21:31N 27°56' W 082°26'0 0.0
2018-May-14 21:01N 27°56' W 082°26'0 0.0
2018-May-14 20:31N 27°56' W 082°26'0 0.0
2018-May-14 20:00N 27°56' W 082°26'0 0.0
2018-May-14 19:31N 27°56' W 082°26'0 0.0
2018-May-14 19:01N 27°56' W 082°26'0 0.0
2018-May-14 18:31N 27°56' W 082°26'0 0.0
2018-May-14 18:01N 27°56' W 082°26'0 0.0
2018-May-14 17:29N 27°56' W 082°26'0 0.0
2018-May-14 17:00N 27°56' W 082°26'0 0.0
2018-May-14 16:30N 27°56' W 082°26'0 0.0
2018-May-14 16:00N 27°56' W 082°26'0 0.0
2018-May-14 15:30N 27°56' W 082°26'0 0.0
2018-May-14 15:00N 27°56' W 082°26'0 0.0
2018-May-14 14:30N 27°56' W 082°26'0 0.0
2018-May-14 14:00N 27°56' W 082°26'0 0.0
2018-May-14 13:30N 27°56' W 082°26'0 0.0
2018-May-14 13:01N 27°56' W 082°26'0 0.0
2018-May-14 12:30N 27°56' W 082°26'0 0.0
2018-May-14 12:00N 27°56' W 082°26'0 0.0
2018-May-14 11:30N 27°56' W 082°26'0 0.0
2018-May-14 11:00N 27°56' W 082°26'0 0.0
2018-May-14 10:30N 27°56' W 082°26'0 0.0
2018-May-14 10:01N 27°56' W 082°26'0 0.0
2018-May-14 09:30N 27°56' W 082°26'0 0.0
2018-May-14 09:00N 27°56' W 082°26'2 3.3
2018-May-14 08:30N 27°54' W 082°26'0 0.2
2018-May-14 08:00N 27°54' W 082°26'1 1.3
2018-May-14 07:30N 27°54' W 082°25'0 0.4
2018-May-14 07:00N 27°54' W 082°25'0 0.4
2018-May-14 06:30N 27°54' W 082°25'2 3.8
2018-May-14 06:00N 27°56' W 082°26'0 0.0
2018-May-14 05:30N 27°56' W 082°26'0 0.0
2018-May-14 05:01N 27°56' W 082°26'0 0.0
2018-May-14 04:31N 27°56' W 082°26'0 0.0
2018-May-14 04:01N 27°56' W 082°26'0 0.0
2018-May-14 03:31N 27°56' W 082°26'0 0.0
2018-May-14 03:00N 27°56' W 082°26'0 0.0
2018-May-14 02:30N 27°56' W 082°26'0 0.0
2018-May-14 02:00N 27°56' W 082°26'0 0.0
2018-May-14 01:31N 27°56' W 082°26'0 0.0
2018-May-14 01:01N 27°56' W 082°26'0 0.0
2018-May-14 00:31N 27°56' W 082°26'0 0.0
2018-May-14 00:01N 27°56' W 082°26'1 2.1
2018-May-13 23:30N 27°55' W 082°25'1 2.2
2018-May-13 23:01N 27°54' W 082°26'4 7.2
2018-May-13 22:30N 27°51' W 082°27'2 4.6
2018-May-13 22:01N 27°51' W 082°24'1 0.5
2018-May-13 20:58N 27°51' W 082°24'3 6.0
2018-May-13 20:30N 27°51' W 082°27'4 7.7
2018-May-13 20:00N 27°55' W 082°26'1 1.7
2018-May-13 19:30N 27°56' W 082°26'0 0.0
2018-May-13 19:01N 27°56' W 082°26'0 0.0
2018-May-13 18:31N 27°56' W 082°26'0 0.0
2018-May-13 18:01N 27°56' W 082°26'0 0.0
2018-May-13 17:31N 27°56' W 082°26'0 0.0
2018-May-13 17:00N 27°56' W 082°26'0 0.0
2018-May-13 16:31N 27°56' W 082°26'0 0.0
2018-May-13 16:01N 27°56' W 082°26'0 0.0
2018-May-13 15:30N 27°56' W 082°26'0 0.0
2018-May-13 15:00N 27°56' W 082°26'0 0.0
2018-May-13 14:30N 27°56' W 082°26'0 0.0
2018-May-13 14:01N 27°56' W 082°26'0 0.0
2018-May-13 13:31N 27°56' W 082°26'0 0.0
2018-May-13 13:01N 27°56' W 082°26'0 0.0
2018-May-13 12:30N 27°56' W 082°26'0 0.0
2018-May-13 12:00N 27°56' W 082°26'0 0.0
2018-May-13 11:31N 27°56' W 082°26'0 0.0
2018-May-13 11:01N 27°56' W 082°26'0 0.0
2018-May-13 10:30N 27°56' W 082°26'0 0.0
2018-May-13 10:01N 27°56' W 082°26'1 2.9
2018-May-13 09:30N 27°55' W 082°26'1 1.5
2018-May-13 09:00N 27°54' W 082°26'1 2.1
2018-May-13 08:30N 27°55' W 082°26'0 0.0
2018-May-13 08:00N 27°55' W 082°26'0 0.6
2018-May-13 07:30N 27°55' W 082°26'1 1.5
2018-May-13 06:59N 27°55' W 082°27'0 0.0
2018-May-13 06:30N 27°55' W 082°27'0 0.0
2018-May-13 06:00N 27°55' W 082°27'0 0.0
2018-May-13 05:30N 27°55' W 082°27'2 3.1
2018-May-13 05:00N 27°53' W 082°26'3 5.4
2018-May-13 04:30N 27°56' W 082°26'0 0.0
2018-May-13 04:00N 27°56' W 082°26'0 0.0
2018-May-13 03:30N 27°56' W 082°26'0 0.0
2018-May-13 03:00N 27°56' W 082°26'0 0.0
2018-May-13 02:30N 27°56' W 082°26'0 0.0
2018-May-13 02:00N 27°56' W 082°26'0 0.0
2018-May-13 01:30N 27°56' W 082°26'0 0.0
2018-May-13 01:00N 27°56' W 082°26'0 0.0
2018-May-13 00:30N 27°56' W 082°26'0 0.0
2018-May-13 00:00N 27°56' W 082°26'0 0.0
2018-May-12 23:30N 27°56' W 082°26'0 0.0
2018-May-12 23:00N 27°56' W 082°26'1 1.8
2018-May-12 22:30N 27°55' W 082°27'1 2.7
2018-May-12 22:00N 27°57' W 082°27'2 4.3
2018-May-12 21:30N 27°55' W 082°26'1 2.9
2018-May-12 21:00N 27°56' W 082°26'0 0.0
2018-May-12 20:31N 27°56' W 082°26'0 0.0
2018-May-12 20:01N 27°56' W 082°26'0 0.0
2018-May-12 19:30N 27°56' W 082°26'0 0.0
2018-May-12 19:01N 27°56' W 082°26'0 0.0
2018-May-12 18:30N 27°56' W 082°26'0 0.0
2018-May-12 18:01N 27°56' W 082°26'0 0.0
2018-May-12 17:31N 27°56' W 082°26'0 0.0
2018-May-12 17:01N 27°56' W 082°26'0 0.0
2018-May-12 16:31N 27°56' W 082°26'0 0.0
2018-May-12 16:01N 27°56' W 082°26'0 0.0
2018-May-12 15:31N 27°56' W 082°26'1 2.1
2018-May-12 15:00N 27°55' W 082°25'0 0.2
2018-May-12 14:30N 27°55' W 082°25'1 2.1
2018-May-12 14:00N 27°56' W 082°26'0 0.0
2018-May-12 13:30N 27°56' W 082°26'0 0.0
2018-May-12 13:00N 27°56' W 082°26'0 0.0
2018-May-12 12:30N 27°56' W 082°26'0 0.0
2018-May-12 12:00N 27°56' W 082°26'0 0.0
2018-May-12 11:30N 27°56' W 082°26'0 0.0
2018-May-12 11:00N 27°56' W 082°26'1 2.3
2018-May-12 10:30N 27°55' W 082°27'0 0.3
2018-May-12 10:00N 27°55' W 082°27'1 1.7
2018-May-12 09:30N 27°55' W 082°26'1 1.6
2018-May-12 09:00N 27°56' W 082°26'0 0.0
2018-May-12 08:30N 27°56' W 082°26'0 0.0
2018-May-12 08:00N 27°56' W 082°26'0 0.0
2018-May-12 07:30N 27°56' W 082°26'0 0.0
2018-May-12 07:00N 27°56' W 082°26'0 0.0
2018-May-12 06:30N 27°56' W 082°26'0 0.0
2018-May-12 06:00N 27°56' W 082°26'0 0.0
2018-May-12 05:30N 27°56' W 082°26'0 0.0
2018-May-12 05:00N 27°56' W 082°26'0 0.0
2018-May-12 04:30N 27°56' W 082°26'0 0.0
2018-May-12 04:00N 27°56' W 082°26'0 0.0
2018-May-12 03:30N 27°56' W 082°26'0 0.0
2018-May-12 03:00N 27°56' W 082°26'0 0.0
2018-May-12 02:30N 27°56' W 082°26'0 0.0
2018-May-12 02:00N 27°56' W 082°26'0 0.0
2018-May-12 01:30N 27°56' W 082°26'0 0.0
2018-May-12 01:00N 27°56' W 082°26'0 0.0
2018-May-12 00:30N 27°56' W 082°26'0 0.0
2018-May-12 00:00N 27°56' W 082°26'0 0.0
2018-May-11 23:30N 27°56' W 082°26'0 0.0
2018-May-11 23:00N 27°56' W 082°26'0 0.0
2018-May-11 22:30N 27°56' W 082°26'0 0.0
2018-May-11 22:00N 27°56' W 082°26'0 0.0
2018-May-11 21:30N 27°56' W 082°26'0 0.0
2018-May-11 21:00N 27°56' W 082°26'1 1.6
2018-May-11 20:31N 27°55' W 082°26'2 3.1
2018-May-11 20:01N 27°57' W 082°27'0 0.6
2018-May-11 19:31N 27°57' W 082°27'1 2.0
2018-May-11 19:00N 27°56' W 082°27'3 5.7
2018-May-11 18:31N 27°53' W 082°26'1 1.1
2018-May-11 18:01N 27°54' W 082°26'2 4.9
2018-May-11 17:30N 27°56' W 082°26'0 0.0
2018-May-11 17:00N 27°56' W 082°26'0 0.0
2018-May-11 16:30N 27°56' W 082°26'0 0.0
2018-May-11 16:00N 27°56' W 082°26'0 0.0
2018-May-11 15:30N 27°56' W 082°26'0 0.0
2018-May-11 15:00N 27°56' W 082°26'0 0.0
2018-May-11 14:30N 27°56' W 082°26'0 0.0
2018-May-11 14:00N 27°56' W 082°26'0 0.8
2018-May-11 13:30N 27°56' W 082°26'2 3.3
2018-May-11 13:00N 27°54' W 082°25'0 0.5
2018-May-11 12:30N 27°54' W 082°25'0 0.0
2018-May-11 12:00N 27°54' W 082°25'0 0.8
2018-May-11 11:30N 27°54' W 082°25'1 2.0
2018-May-11 11:00N 27°54' W 082°26'1 2.2
2018-May-11 10:30N 27°53' W 082°26'1 3.0
2018-May-11 10:00N 27°55' W 082°26'0 0.0
2018-May-11 09:30N 27°55' W 082°26'0 0.0
2018-May-11 09:00N 27°55' W 082°26'0 0.0
2018-May-11 08:30N 27°55' W 082°26'0 0.0
2018-May-11 08:00N 27°55' W 082°26'1 1.2
2018-May-11 07:30N 27°55' W 082°27'0 0.4
2018-May-11 07:00N 27°55' W 082°27'2 3.7
2018-May-11 06:30N 27°53' W 082°26'0 0.3
2018-May-11 06:00N 27°53' W 082°26'3 5.5
2018-May-11 05:30N 27°56' W 082°26'0 0.0
2018-May-11 05:00N 27°56' W 082°26'0 0.0
2018-May-11 04:30N 27°56' W 082°26'0 0.0
2018-May-11 04:00N 27°56' W 082°26'0 0.0
2018-May-11 03:30N 27°56' W 082°26'0 0.0
2018-May-11 03:00N 27°56' W 082°26'0 0.0
2018-May-11 02:30N 27°56' W 082°26'0 0.0
2018-May-11 02:00N 27°56' W 082°26'0 0.0
2018-May-11 01:30N 27°56' W 082°26'0 0.0
2018-May-11 01:00N 27°56' W 082°26'0 0.0
2018-May-11 00:30N 27°56' W 082°26'0 0.0
2018-May-11 00:00N 27°56' W 082°26'0 0.0
2018-May-10 23:30N 27°56' W 082°26'0 0.0
2018-May-10 23:00N 27°56' W 082°26'0 0.0
2018-May-10 22:30N 27°56' W 082°26'0 0.0
2018-May-10 22:00N 27°56' W 082°26'0 0.0
2018-May-10 21:30N 27°56' W 082°26'0 0.0
2018-May-10 21:00N 27°56' W 082°26'0 0.0
2018-May-10 20:30N 27°56' W 082°26'0 0.0
2018-May-10 20:00N 27°56' W 082°26'2 3.4
2018-May-10 19:30N 27°54' W 082°26'1 1.4
2018-May-10 19:00N 27°54' W 082°25'0 0.9
2018-May-10 18:30N 27°54' W 082°25'0 0.5
2018-May-10 18:00N 27°54' W 082°26'0 0.7
2018-May-10 17:31N 27°54' W 082°25'0 0.1
2018-May-10 17:01N 27°54' W 082°25'2 3.7
2018-May-10 16:30N 27°56' W 082°26'0 0.0
2018-May-10 16:00N 27°56' W 082°26'0 0.0
2018-May-10 15:30N 27°56' W 082°26'0 0.0
2018-May-10 15:00N 27°56' W 082°26'0 0.0
2018-May-10 14:30N 27°56' W 082°26'0 0.0
2018-May-10 14:00N 27°56' W 082°26'0 0.0
2018-May-10 13:30N 27°56' W 082°26'0 0.0
2018-May-10 13:00N 27°56' W 082°26'0 0.0
2018-May-10 12:28N 27°56' W 082°26'0 0.0
2018-May-10 12:00N 27°56' W 082°26'0 0.0
2018-May-10 11:30N 27°56' W 082°26'0 0.0
2018-May-10 11:00N 27°56' W 082°26'0 0.0
2018-May-10 10:30N 27°56' W 082°26'0 0.0
2018-May-10 10:00N 27°56' W 082°26'0 0.0
2018-May-10 09:30N 27°56' W 082°26'0 0.0
2018-May-10 09:00N 27°56' W 082°26'0 0.0
2018-May-10 08:30N 27°56' W 082°26'0 0.0
2018-May-10 08:00N 27°56' W 082°26'0 0.0
2018-May-10 07:30N 27°56' W 082°26'0 0.0
2018-May-10 07:00N 27°56' W 082°26'0 0.0
2018-May-10 06:30N 27°56' W 082°26'0 0.0
2018-May-10 06:00N 27°56' W 082°26'0 0.0
2018-May-10 05:30N 27°56' W 082°26'0 0.0
2018-May-10 05:00N 27°56' W 082°26'2 3.3
2018-May-10 04:30N 27°54' W 082°26'0 0.0
2018-May-10 04:00N 27°54' W 082°26'0 0.0
2018-May-10 03:30N 27°54' W 082°26'0 0.0
2018-May-10 03:00N 27°54' W 082°26'0 0.0
2018-May-10 02:30N 27°54' W 082°26'0 0.0
2018-May-10 02:00N 27°54' W 082°26'0 0.4
2018-May-10 01:30N 27°54' W 082°25'1 2.1
2018-May-10 01:00N 27°54' W 082°26'0 0.8
2018-May-10 00:30N 27°53' W 082°26'3 5.1
2018-May-10 00:00N 27°56' W 082°26'0 1.0
2018-May-09 23:30N 27°56' W 082°26'0 0.0
2018-May-09 23:00N 27°56' W 082°26'0 0.0
2018-May-09 22:30N 27°56' W 082°26'0 0.0
2018-May-09 22:00N 27°56' W 082°26'0 0.0
2018-May-09 21:30N 27°56' W 082°26'0 0.0
2018-May-09 21:00N 27°56' W 082°26'0 0.0
2018-May-09 20:31N 27°56' W 082°26'0 0.0
2018-May-09 20:00N 27°56' W 082°26'0 0.0
2018-May-09 19:30N 27°56' W 082°26'0 0.0
2018-May-09 19:01N 27°56' W 082°26'0 0.0
2018-May-09 18:30N 27°56' W 082°26'0 0.0
2018-May-09 18:00N 27°56' W 082°26'0 0.0
2018-May-09 17:30N 27°56' W 082°26'0 0.0
2018-May-09 17:00N 27°56' W 082°26'0 0.0
2018-May-09 16:30N 27°56' W 082°26'0 0.0
2018-May-09 16:00N 27°56' W 082°26'0 0.0
2018-May-09 15:30N 27°56' W 082°26'0 0.0
2018-May-09 15:00N 27°56' W 082°26'0 0.0
2018-May-09 14:30N 27°56' W 082°26'1 2.0
2018-May-09 14:00N 27°55' W 082°26'1 1.7
2018-May-09 13:29N 27°55' W 082°27'1 2.9
2018-May-09 13:00N 27°56' W 082°27'0 0.6
2018-May-09 12:30N 27°57' W 082°27'0 0.0
2018-May-09 12:00N 27°57' W 082°27'2 3.2
2018-May-09 11:30N 27°55' W 082°27'0 0.0
2018-May-09 11:00N 27°55' W 082°27'1 2.5
2018-May-09 10:30N 27°56' W 082°27'0 0.1
2018-May-09 10:00N 27°56' W 082°27'0 0.3
2018-May-09 09:30N 27°56' W 082°27'0 0.3
2018-May-09 09:00N 27°56' W 082°27'2 4.3
2018-May-09 08:30N 27°54' W 082°26'2 3.3
2018-May-09 08:00N 27°56' W 082°26'0 0.4
2018-May-09 07:30N 27°56' W 082°26'0 0.0
2018-May-09 07:00N 27°56' W 082°26'0 0.0
2018-May-09 06:30N 27°56' W 082°26'0 0.0
2018-May-09 06:00N 27°56' W 082°26'0 0.0
2018-May-09 05:30N 27°56' W 082°26'0 0.0
2018-May-09 05:00N 27°56' W 082°26'0 0.0
2018-May-09 04:30N 27°56' W 082°26'0 0.0
2018-May-09 04:00N 27°56' W 082°26'0 0.0
2018-May-09 03:30N 27°56' W 082°26'0 0.0
2018-May-09 03:00N 27°56' W 082°26'0 0.0
2018-May-09 02:30N 27°56' W 082°26'0 0.0
2018-May-09 02:00N 27°56' W 082°26'0 0.0
2018-May-09 01:30N 27°56' W 082°26'0 0.0
2018-May-09 01:00N 27°56' W 082°26'0 0.0
2018-May-09 00:30N 27°56' W 082°26'0 0.0
2018-May-09 00:00N 27°56' W 082°26'0 0.0
2018-May-08 23:30N 27°56' W 082°26'0 0.0
2018-May-08 23:00N 27°56' W 082°26'0 0.0
2018-May-08 22:30N 27°56' W 082°26'0 0.0
2018-May-08 22:00N 27°56' W 082°26'0 0.0
2018-May-08 21:30N 27°56' W 082°26'0 0.0
2018-May-08 21:00N 27°56' W 082°26'0 0.0
2018-May-08 20:30N 27°56' W 082°26'0 0.0
2018-May-08 20:00N 27°56' W 082°26'0 0.0
2018-May-08 19:30N 27°56' W 082°26'0 0.0
2018-May-08 19:00N 27°56' W 082°26'0 0.0
2018-May-08 18:30N 27°56' W 082°26'0 0.0
2018-May-08 18:00N 27°56' W 082°26'0 0.0
2018-May-08 17:30N 27°56' W 082°26'0 0.0
2018-May-08 17:00N 27°56' W 082°26'0 0.0
2018-May-08 16:30N 27°56' W 082°26'0 0.0
2018-May-08 16:00N 27°56' W 082°26'0 0.0
2018-May-08 15:30N 27°56' W 082°26'0 0.0
2018-May-08 15:00N 27°56' W 082°26'0 0.0
2018-May-08 14:30N 27°56' W 082°26'0 0.0
2018-May-08 14:00N 27°56' W 082°26'0 0.0
2018-May-08 13:30N 27°56' W 082°26'0 0.0
2018-May-08 13:00N 27°56' W 082°26'0 0.0
2018-May-08 12:30N 27°56' W 082°26'0 0.0
2018-May-08 12:00N 27°56' W 082°26'0 0.0
2018-May-08 11:30N 27°56' W 082°26'0 0.0
2018-May-08 11:00N 27°56' W 082°26'0 0.0
2018-May-08 10:30N 27°56' W 082°26'0 0.0
2018-May-08 10:00N 27°56' W 082°26'0 0.0
2018-May-08 09:30N 27°56' W 082°26'0 0.0
2018-May-08 09:01N 27°56' W 082°26'0 0.0
2018-May-08 08:29N 27°56' W 082°26'0 0.0
2018-May-08 08:00N 27°56' W 082°26'0 0.0
2018-May-08 07:30N 27°56' W 082°26'1 1.3
2018-May-08 07:00N 27°55' W 082°26'0 1.0
2018-May-08 06:30N 27°56' W 082°26'0 0.3
2018-May-08 06:00N 27°56' W 082°26'0 0.0
2018-May-08 05:31N 27°56' W 082°26'0 0.0
2018-May-08 05:01N 27°56' W 082°26'0 0.0
2018-May-08 04:31N 27°56' W 082°26'0 0.0
2018-May-08 04:01N 27°56' W 082°26'0 0.0
2018-May-08 03:30N 27°56' W 082°26'0 0.0
2018-May-08 03:00N 27°56' W 082°26'0 0.0
2018-May-08 02:31N 27°56' W 082°26'0 0.0
2018-May-08 02:00N 27°56' W 082°26'0 0.0
2018-May-08 01:31N 27°56' W 082°26'0 0.0
2018-May-08 01:00N 27°56' W 082°26'0 0.0
2018-May-08 00:31N 27°56' W 082°26'0 0.0
2018-May-08 00:00N 27°56' W 082°26'0 0.0
2018-May-07 23:30N 27°56' W 082°26'0 0.0
2018-May-07 23:01N 27°56' W 082°26'0 0.8
2018-May-07 22:30N 27°56' W 082°26'0 0.4
2018-May-07 22:00N 27°56' W 082°26'1 1.1
2018-May-07 21:30N 27°56' W 082°26'0 0.0
2018-May-07 21:00N 27°56' W 082°26'0 0.0
2018-May-07 20:30N 27°56' W 082°26'0 0.0
2018-May-07 20:00N 27°56' W 082°26'0 0.0
2018-May-07 19:30N 27°56' W 082°26'0 0.0
2018-May-07 19:00N 27°56' W 082°26'0 0.0
2018-May-07 18:30N 27°56' W 082°26'0 0.0
2018-May-07 18:00N 27°56' W 082°26'0 0.0
2018-May-07 17:30N 27°56' W 082°26'1 2.3
2018-May-07 17:00N 27°55' W 082°27'0 0.4
2018-May-07 16:30N 27°55' W 082°27'0 0.7
2018-May-07 16:00N 27°55' W 082°27'2 3.9
2018-May-07 15:30N 27°53' W 082°27'2 3.8
2018-May-07 15:00N 27°55' W 082°26'1 2.7
2018-May-07 14:30N 27°56' W 082°26'0 0.0
2018-May-07 14:00N 27°56' W 082°26'0 0.0
2018-May-07 13:30N 27°56' W 082°26'0 0.0
2018-May-07 13:00N 27°56' W 082°26'0 0.0
2018-May-07 12:30N 27°56' W 082°26'2 3.8
2018-May-07 12:00N 27°54' W 082°25'0 0.5
2018-May-07 11:30N 27°54' W 082°26'1 2.5
2018-May-07 11:00N 27°53' W 082°26'1 2.4
2018-May-07 10:30N 27°54' W 082°26'2 3.3
2018-May-07 10:00N 27°56' W 082°26'0 0.0
2018-May-07 09:30N 27°56' W 082°26'0 0.0
2018-May-07 09:00N 27°56' W 082°26'0 0.0
2018-May-07 08:30N 27°56' W 082°26'0 0.0
2018-May-07 08:00N 27°56' W 082°26'0 0.0
2018-May-07 07:30N 27°56' W 082°26'2 3.3
2018-May-07 06:59N 27°54' W 082°26'1 2.0
2018-May-07 06:30N 27°55' W 082°27'0 0.4
2018-May-07 06:01N 27°55' W 082°27'2 4.0
2018-May-07 05:30N 27°53' W 082°26'2 3.2
2018-May-07 05:00N 27°54' W 082°26'2 3.2
2018-May-07 04:31N 27°56' W 082°26'0 0.0
2018-May-07 04:01N 27°56' W 082°26'0 0.0
2018-May-07 03:30N 27°56' W 082°26'0 0.0
2018-May-07 03:01N 27°56' W 082°26'0 0.0
2018-May-07 02:31N 27°56' W 082°26'0 0.0
2018-May-07 02:01N 27°56' W 082°26'0 0.0
2018-May-07 01:31N 27°56' W 082°26'0 0.0
2018-May-07 01:00N 27°56' W 082°26'0 0.0
2018-May-07 00:30N 27°56' W 082°26'0 0.0
2018-May-07 00:01N 27°56' W 082°26'0 0.0
2018-May-06 23:31N 27°56' W 082°26'0 0.0
2018-May-06 23:01N 27°56' W 082°26'0 0.0
2018-May-06 22:31N 27°56' W 082°26'0 0.0
2018-May-06 22:00N 27°56' W 082°26'0 0.0
2018-May-06 21:31N 27°56' W 082°26'0 0.0
2018-May-06 21:00N 27°56' W 082°26'0 0.0
2018-May-06 20:29N 27°56' W 082°26'1 2.6
2018-May-06 20:01N 27°55' W 082°27'0 0.1
2018-May-06 19:30N 27°55' W 082°27'2 3.7
2018-May-06 19:01N 27°53' W 082°26'0 0.3
2018-May-06 18:30N 27°53' W 082°26'3 5.9
2018-May-06 18:00N 27°56' W 082°26'0 0.4
2018-May-06 17:31N 27°56' W 082°26'0 0.0
2018-May-06 17:01N 27°56' W 082°26'0 0.0
2018-May-06 16:30N 27°56' W 082°26'0 0.0
2018-May-06 16:01N 27°56' W 082°26'0 0.0
2018-May-06 15:31N 27°56' W 082°26'0 0.0
2018-May-06 15:01N 27°56' W 082°26'0 0.0
2018-May-06 14:31N 27°56' W 082°26'0 0.0
2018-May-06 14:01N 27°56' W 082°26'0 0.0
2018-May-06 13:31N 27°56' W 082°26'0 0.0
2018-May-06 13:01N 27°56' W 082°26'0 0.0
2018-May-06 12:30N 27°56' W 082°26'0 0.0
2018-May-06 12:00N 27°56' W 082°26'0 0.0
2018-May-06 11:30N 27°56' W 082°26'0 0.0
2018-May-06 11:01N 27°56' W 082°26'0 0.0
2018-May-06 10:31N 27°56' W 082°26'0 0.0
2018-May-06 10:01N 27°56' W 082°26'0 0.0
2018-May-06 09:30N 27°56' W 082°26'0 0.0
2018-May-06 09:01N 27°56' W 082°26'0 0.0
2018-May-06 08:30N 27°56' W 082°26'0 0.0
2018-May-06 08:01N 27°56' W 082°26'0 0.0
2018-May-06 07:31N 27°56' W 082°26'0 0.0
2018-May-06 07:00N 27°56' W 082°26'0 0.0
2018-May-06 06:31N 27°56' W 082°26'0 0.0
2018-May-06 06:01N 27°56' W 082°26'0 0.0
2018-May-06 05:30N 27°56' W 082°26'0 0.0
2018-May-06 05:01N 27°56' W 082°26'0 0.0
2018-May-06 04:31N 27°56' W 082°26'0 0.0
2018-May-06 04:01N 27°56' W 082°26'2 3.4
2018-May-06 03:30N 27°54' W 082°26'0 0.6
2018-May-06 03:00N 27°55' W 082°26'1 2.3
2018-May-06 02:30N 27°56' W 082°26'0 0.6
2018-May-06 02:00N 27°56' W 082°26'0 0.0
2018-May-06 01:30N 27°56' W 082°26'0 0.0
2018-May-06 01:00N 27°56' W 082°26'0 0.0
2018-May-06 00:31N 27°56' W 082°26'0 0.0
2018-May-06 00:00N 27°56' W 082°26'0 0.0
2018-May-05 23:31N 27°56' W 082°26'0 0.0
2018-May-05 23:00N 27°56' W 082°26'0 0.0
2018-May-05 22:30N 27°56' W 082°26'0 0.0
2018-May-05 22:00N 27°56' W 082°26'0 0.0
2018-May-05 21:30N 27°56' W 082°26'0 0.0
2018-May-05 21:01N 27°56' W 082°26'0 0.0
2018-May-05 20:31N 27°56' W 082°26'0 0.0
2018-May-05 20:00N 27°56' W 082°26'0 0.0
2018-May-05 19:31N 27°56' W 082°26'0 0.0
2018-May-05 19:00N 27°56' W 082°26'0 0.0
2018-May-05 18:31N 27°56' W 082°26'0 0.0
2018-May-05 18:01N 27°56' W 082°26'0 0.0
2018-May-05 17:30N 27°56' W 082°26'0 0.0
2018-May-05 17:00N 27°56' W 082°26'0 0.0
2018-May-05 16:31N 27°56' W 082°26'0 0.0
2018-May-05 16:01N 27°56' W 082°26'0 0.0
2018-May-05 15:31N 27°56' W 082°26'0 0.0
2018-May-05 15:01N 27°56' W 082°26'0 0.0
2018-May-05 14:30N 27°56' W 082°26'  
Track history (hours):
 
Tides and Currents Weather Stations Pressure Air Temp Water Temp Dewpoint Dewpoint Depression Visibility Wind Speed Wind Dir Waves Ship Positions

Endeavor

Owner: TAMPA TUGS LLC, TAMPA, FL. More information available from US FCC via Universal Licensing System and Coast Guard Vessel Documentation Center.

Last reported at 2018-May-15 14:20 UTC. Time now 2018-Jun-20 07:23 UTC.
Position N 27°53' W 082°27'.
Warning: this ship's position is 35 days out of date.

Length 28 m; draft 5.1 m.

Type: Tug. MMSI: 366884240.

Date/timePositionNaut miles runAvg speedWind from/ knotsBaromVisibWave heightAir tempDewpointWater temp
2018-May-15 14:20N 27°53' W 082°27'2 6.1
2018-May-15 14:01N 27°55' W 082°26'1 2.6
2018-May-15 13:30N 27°56' W 082°26'0 0.0
2018-May-15 13:00N 27°56' W 082°26'0 0.0
2018-May-15 12:30N 27°56' W 082°26'0 0.0
2018-May-15 12:00N 27°56' W 082°26'2 3.5
2018-May-15 11:30N 27°54' W 082°26'0 0.1
2018-May-15 11:00N 27°54' W 082°26'1 1.0
2018-May-15 10:30N 27°54' W 082°26'1 1.4
2018-May-15 10:00N 27°53' W 082°26'3 5.5
2018-May-15 09:30N 27°56' W 082°26'0 0.0
2018-May-15 09:01N 27°56' W 082°26'0 0.0
2018-May-15 08:31N 27°56' W 082°26'0 0.0
2018-May-15 08:01N 27°56' W 082°26'0 0.0
2018-May-15 07:31N 27°56' W 082°26'0 0.0
2018-May-15 07:01N 27°56' W 082°26'0 0.0
2018-May-15 06:30N 27°56' W 082°26'0 0.0
2018-May-15 06:01N 27°56' W 082°26'0 0.0
2018-May-15 05:30N 27°56' W 082°26'0 0.0
2018-May-15 05:01N 27°56' W 082°26'0 0.0
2018-May-15 04:31N 27°56' W 082°26'0 0.0
2018-May-15 04:01N 27°56' W 082°26'0 0.0
2018-May-15 03:31N 27°56' W 082°26'0 0.0
2018-May-15 03:01N 27°56' W 082°26'0 0.0
2018-May-15 02:30N 27°56' W 082°26'0 0.0
2018-May-15 02:00N 27°56' W 082°26'0 0.0
2018-May-15 01:31N 27°56' W 082°26'0 0.0
2018-May-15 01:00N 27°56' W 082°26'0 0.0
2018-May-15 00:30N 27°56' W 082°26'0 0.0
2018-May-15 00:00N 27°56' W 082°26'0 0.0
2018-May-14 23:31N 27°56' W 082°26'0 0.0
2018-May-14 23:01N 27°56' W 082°26'0 0.0
2018-May-14 22:30N 27°56' W 082°26'0 0.0
2018-May-14 22:00N 27°56' W 082°26'0 0.0
2018-May-14 21:31N 27°56' W 082°26'0 0.0
2018-May-14 21:01N 27°56' W 082°26'0 0.0
2018-May-14 20:31N 27°56' W 082°26'0 0.0
2018-May-14 20:00N 27°56' W 082°26'0 0.0
2018-May-14 19:31N 27°56' W 082°26'0 0.0
2018-May-14 19:01N 27°56' W 082°26'0 0.0
2018-May-14 18:31N 27°56' W 082°26'0 0.0
2018-May-14 18:01N 27°56' W 082°26'0 0.0
2018-May-14 17:29N 27°56' W 082°26'0 0.0
2018-May-14 17:00N 27°56' W 082°26'0 0.0
2018-May-14 16:30N 27°56' W 082°26'0 0.0
2018-May-14 16:00N 27°56' W 082°26'0 0.0
2018-May-14 15:30N 27°56' W 082°26'0 0.0
2018-May-14 15:00N 27°56' W 082°26'0 0.0
2018-May-14 14:30N 27°56' W 082°26'0 0.0
2018-May-14 14:00N 27°56' W 082°26'0 0.0
2018-May-14 13:30N 27°56' W 082°26'0 0.0
2018-May-14 13:01N 27°56' W 082°26'0 0.0
2018-May-14 12:30N 27°56' W 082°26'0 0.0
2018-May-14 12:00N 27°56' W 082°26'0 0.0
2018-May-14 11:30N 27°56' W 082°26'0 0.0
2018-May-14 11:00N 27°56' W 082°26'0 0.0
2018-May-14 10:30N 27°56' W 082°26'0 0.0
2018-May-14 10:01N 27°56' W 082°26'0 0.0
2018-May-14 09:30N 27°56' W 082°26'0 0.0
2018-May-14 09:00N 27°56' W 082°26'2 3.3
2018-May-14 08:30N 27°54' W 082°26'0 0.2
2018-May-14 08:00N 27°54' W 082°26'1 1.3
2018-May-14 07:30N 27°54' W 082°25'0 0.4
2018-May-14 07:00N 27°54' W 082°25'0 0.4
2018-May-14 06:30N 27°54' W 082°25'2 3.8
2018-May-14 06:00N 27°56' W 082°26'0 0.0
2018-May-14 05:30N 27°56' W 082°26'0 0.0
2018-May-14 05:01N 27°56' W 082°26'0 0.0
2018-May-14 04:31N 27°56' W 082°26'0 0.0
2018-May-14 04:01N 27°56' W 082°26'0 0.0
2018-May-14 03:31N 27°56' W 082°26'0 0.0
2018-May-14 03:00N 27°56' W 082°26'0 0.0
2018-May-14 02:30N 27°56' W 082°26'0 0.0
2018-May-14 02:00N 27°56' W 082°26'0 0.0
2018-May-14 01:31N 27°56' W 082°26'0 0.0
2018-May-14 01:01N 27°56' W 082°26'0 0.0
2018-May-14 00:31N 27°56' W 082°26'0 0.0
2018-May-14 00:01N 27°56' W 082°26'1 2.1
2018-May-13 23:30N 27°55' W 082°25'1 2.2
2018-May-13 23:01N 27°54' W 082°26'4 7.2
2018-May-13 22:30N 27°51' W 082°27'2 4.6
2018-May-13 22:01N 27°51' W 082°24'1 0.5
2018-May-13 20:58N 27°51' W 082°24'3 6.0
2018-May-13 20:30N 27°51' W 082°27'4 7.7
2018-May-13 20:00N 27°55' W 082°26'1 1.7
2018-May-13 19:30N 27°56' W 082°26'0 0.0
2018-May-13 19:01N 27°56' W 082°26'0 0.0
2018-May-13 18:31N 27°56' W 082°26'0 0.0
2018-May-13 18:01N 27°56' W 082°26'0 0.0
2018-May-13 17:31N 27°56' W 082°26'0 0.0
2018-May-13 17:00N 27°56' W 082°26'0 0.0
2018-May-13 16:31N 27°56' W 082°26'0 0.0
2018-May-13 16:01N 27°56' W 082°26'0 0.0
2018-May-13 15:30N 27°56' W 082°26'0 0.0
2018-May-13 15:00N 27°56' W 082°26'0 0.0
2018-May-13 14:30N 27°56' W 082°26'0 0.0
2018-May-13 14:01N 27°56' W 082°26'0 0.0
2018-May-13 13:31N 27°56' W 082°26'0 0.0
2018-May-13 13:01N 27°56' W 082°26'0 0.0
2018-May-13 12:30N 27°56' W 082°26'0 0.0
2018-May-13 12:00N 27°56' W 082°26'0 0.0
2018-May-13 11:31N 27°56' W 082°26'0 0.0
2018-May-13 11:01N 27°56' W 082°26'0 0.0
2018-May-13 10:30N 27°56' W 082°26'0 0.0
2018-May-13 10:01N 27°56' W 082°26'1 2.9
2018-May-13 09:30N 27°55' W 082°26'1 1.5
2018-May-13 09:00N 27°54' W 082°26'1 2.1
2018-May-13 08:30N 27°55' W 082°26'0 0.0
2018-May-13 08:00N 27°55' W 082°26'0 0.6
2018-May-13 07:30N 27°55' W 082°26'1 1.5
2018-May-13 06:59N 27°55' W 082°27'0 0.0
2018-May-13 06:30N 27°55' W 082°27'0 0.0
2018-May-13 06:00N 27°55' W 082°27'0 0.0
2018-May-13 05:30N 27°55' W 082°27'2 3.1
2018-May-13 05:00N 27°53' W 082°26'3 5.4
2018-May-13 04:30N 27°56' W 082°26'0 0.0
2018-May-13 04:00N 27°56' W 082°26'0 0.0
2018-May-13 03:30N 27°56' W 082°26'0 0.0
2018-May-13 03:00N 27°56' W 082°26'0 0.0
2018-May-13 02:30N 27°56' W 082°26'0 0.0
2018-May-13 02:00N 27°56' W 082°26'0 0.0
2018-May-13 01:30N 27°56' W 082°26'0 0.0
2018-May-13 01:00N 27°56' W 082°26'0 0.0
2018-May-13 00:30N 27°56' W 082°26'0 0.0
2018-May-13 00:00N 27°56' W 082°26'0 0.0
2018-May-12 23:30N 27°56' W 082°26'0 0.0
2018-May-12 23:00N 27°56' W 082°26'1 1.8
2018-May-12 22:30N 27°55' W 082°27'1 2.7
2018-May-12 22:00N 27°57' W 082°27'2 4.3
2018-May-12 21:30N 27°55' W 082°26'1 2.9
2018-May-12 21:00N 27°56' W 082°26'0 0.0
2018-May-12 20:31N 27°56' W 082°26'0 0.0
2018-May-12 20:01N 27°56' W 082°26'0 0.0
2018-May-12 19:30N 27°56' W 082°26'0 0.0
2018-May-12 19:01N 27°56' W 082°26'0 0.0
2018-May-12 18:30N 27°56' W 082°26'0 0.0
2018-May-12 18:01N 27°56' W 082°26'0 0.0
2018-May-12 17:31N 27°56' W 082°26'0 0.0
2018-May-12 17:01N 27°56' W 082°26'0 0.0
2018-May-12 16:31N 27°56' W 082°26'0 0.0
2018-May-12 16:01N 27°56' W 082°26'0 0.0
2018-May-12 15:31N 27°56' W 082°26'1 2.1
2018-May-12 15:00N 27°55' W 082°25'0 0.2
2018-May-12 14:30N 27°55' W 082°25'1 2.1
2018-May-12 14:00N 27°56' W 082°26'0 0.0
2018-May-12 13:30N 27°56' W 082°26'0 0.0
2018-May-12 13:00N 27°56' W 082°26'0 0.0
2018-May-12 12:30N 27°56' W 082°26'0 0.0
2018-May-12 12:00N 27°56' W 082°26'0 0.0
2018-May-12 11:30N 27°56' W 082°26'0 0.0
2018-May-12 11:00N 27°56' W 082°26'1 2.3
2018-May-12 10:30N 27°55' W 082°27'0 0.3
2018-May-12 10:00N 27°55' W 082°27'1 1.7
2018-May-12 09:30N 27°55' W 082°26'1 1.6
2018-May-12 09:00N 27°56' W 082°26'0 0.0
2018-May-12 08:30N 27°56' W 082°26'0 0.0
2018-May-12 08:00N 27°56' W 082°26'0 0.0
2018-May-12 07:30N 27°56' W 082°26'0 0.0
2018-May-12 07:00N 27°56' W 082°26'0 0.0
2018-May-12 06:30N 27°56' W 082°26'0 0.0
2018-May-12 06:00N 27°56' W 082°26'0 0.0
2018-May-12 05:30N 27°56' W 082°26'0 0.0
2018-May-12 05:00N 27°56' W 082°26'0 0.0
2018-May-12 04:30N 27°56' W 082°26'0 0.0
2018-May-12 04:00N 27°56' W 082°26'0 0.0
2018-May-12 03:30N 27°56' W 082°26'0 0.0
2018-May-12 03:00N 27°56' W 082°26'0 0.0
2018-May-12 02:30N 27°56' W 082°26'0 0.0
2018-May-12 02:00N 27°56' W 082°26'0 0.0
2018-May-12 01:30N 27°56' W 082°26'0 0.0
2018-May-12 01:00N 27°56' W 082°26'0 0.0
2018-May-12 00:30N 27°56' W 082°26'0 0.0
2018-May-12 00:00N 27°56' W 082°26'0 0.0
2018-May-11 23:30N 27°56' W 082°26'0 0.0
2018-May-11 23:00N 27°56' W 082°26'0 0.0
2018-May-11 22:30N 27°56' W 082°26'0 0.0
2018-May-11 22:00N 27°56' W 082°26'0 0.0
2018-May-11 21:30N 27°56' W 082°26'0 0.0
2018-May-11 21:00N 27°56' W 082°26'1 1.6
2018-May-11 20:31N 27°55' W 082°26'2 3.1
2018-May-11 20:01N 27°57' W 082°27'0 0.6
2018-May-11 19:31N 27°57' W 082°27'1 2.0
2018-May-11 19:00N 27°56' W 082°27'3 5.7
2018-May-11 18:31N 27°53' W 082°26'1 1.1
2018-May-11 18:01N 27°54' W 082°26'2 4.9
2018-May-11 17:30N 27°56' W 082°26'0 0.0
2018-May-11 17:00N 27°56' W 082°26'0 0.0
2018-May-11 16:30N 27°56' W 082°26'0 0.0
2018-May-11 16:00N 27°56' W 082°26'0 0.0
2018-May-11 15:30N 27°56' W 082°26'0 0.0
2018-May-11 15:00N 27°56' W 082°26'0 0.0
2018-May-11 14:30N 27°56' W 082°26'0 0.0
2018-May-11 14:00N 27°56' W 082°26'0 0.8
2018-May-11 13:30N 27°56' W 082°26'2 3.3
2018-May-11 13:00N 27°54' W 082°25'0 0.5
2018-May-11 12:30N 27°54' W 082°25'0 0.0
2018-May-11 12:00N 27°54' W 082°25'0 0.8
2018-May-11 11:30N 27°54' W 082°25'1 2.0
2018-May-11 11:00N 27°54' W 082°26'1 2.2
2018-May-11 10:30N 27°53' W 082°26'1 3.0
2018-May-11 10:00N 27°55' W 082°26'0 0.0
2018-May-11 09:30N 27°55' W 082°26'0 0.0
2018-May-11 09:00N 27°55' W 082°26'0 0.0
2018-May-11 08:30N 27°55' W 082°26'0 0.0
2018-May-11 08:00N 27°55' W 082°26'1 1.2
2018-May-11 07:30N 27°55' W 082°27'0 0.4
2018-May-11 07:00N 27°55' W 082°27'2 3.7
2018-May-11 06:30N 27°53' W 082°26'0 0.3
2018-May-11 06:00N 27°53' W 082°26'3 5.5
2018-May-11 05:30N 27°56' W 082°26'0 0.0
2018-May-11 05:00N 27°56' W 082°26'0 0.0
2018-May-11 04:30N 27°56' W 082°26'0 0.0
2018-May-11 04:00N 27°56' W 082°26'0 0.0
2018-May-11 03:30N 27°56' W 082°26'0 0.0
2018-May-11 03:00N 27°56' W 082°26'0 0.0
2018-May-11 02:30N 27°56' W 082°26'0 0.0
2018-May-11 02:00N 27°56' W 082°26'0 0.0
2018-May-11 01:30N 27°56' W 082°26'0 0.0
2018-May-11 01:00N 27°56' W 082°26'0 0.0
2018-May-11 00:30N 27°56' W 082°26'0 0.0
2018-May-11 00:00N 27°56' W 082°26'0 0.0
2018-May-10 23:30N 27°56' W 082°26'0 0.0
2018-May-10 23:00N 27°56' W 082°26'0 0.0
2018-May-10 22:30N 27°56' W 082°26'0 0.0
2018-May-10 22:00N 27°56' W 082°26'0 0.0
2018-May-10 21:30N 27°56' W 082°26'0 0.0
2018-May-10 21:00N 27°56' W 082°26'0 0.0
2018-May-10 20:30N 27°56' W 082°26'0 0.0
2018-May-10 20:00N 27°56' W 082°26'2 3.4
2018-May-10 19:30N 27°54' W 082°26'1 1.4
2018-May-10 19:00N 27°54' W 082°25'0 0.9
2018-May-10 18:30N 27°54' W 082°25'0 0.5
2018-May-10 18:00N 27°54' W 082°26'0 0.7
2018-May-10 17:31N 27°54' W 082°25'0 0.1
2018-May-10 17:01N 27°54' W 082°25'2 3.7
2018-May-10 16:30N 27°56' W 082°26'0 0.0
2018-May-10 16:00N 27°56' W 082°26'0 0.0
2018-May-10 15:30N 27°56' W 082°26'0 0.0
2018-May-10 15:00N 27°56' W 082°26'0 0.0
2018-May-10 14:30N 27°56' W 082°26'0 0.0
2018-May-10 14:00N 27°56' W 082°26'0 0.0
2018-May-10 13:30N 27°56' W 082°26'0 0.0
2018-May-10 13:00N 27°56' W 082°26'0 0.0
2018-May-10 12:28N 27°56' W 082°26'0 0.0
2018-May-10 12:00N 27°56' W 082°26'0 0.0
2018-May-10 11:30N 27°56' W 082°26'0 0.0
2018-May-10 11:00N 27°56' W 082°26'0 0.0
2018-May-10 10:30N 27°56' W 082°26'0 0.0
2018-May-10 10:00N 27°56' W 082°26'0 0.0
2018-May-10 09:30N 27°56' W 082°26'0 0.0
2018-May-10 09:00N 27°56' W 082°26'0 0.0
2018-May-10 08:30N 27°56' W 082°26'0 0.0
2018-May-10 08:00N 27°56' W 082°26'0 0.0
2018-May-10 07:30N 27°56' W 082°26'0 0.0
2018-May-10 07:00N 27°56' W 082°26'0 0.0
2018-May-10 06:30N 27°56' W 082°26'0 0.0
2018-May-10 06:00N 27°56' W 082°26'0 0.0
2018-May-10 05:30N 27°56' W 082°26'0 0.0
2018-May-10 05:00N 27°56' W 082°26'2 3.3
2018-May-10 04:30N 27°54' W 082°26'0 0.0
2018-May-10 04:00N 27°54' W 082°26'0 0.0
2018-May-10 03:30N 27°54' W 082°26'0 0.0
2018-May-10 03:00N 27°54' W 082°26'0 0.0
2018-May-10 02:30N 27°54' W 082°26'0 0.0
2018-May-10 02:00N 27°54' W 082°26'0 0.4
2018-May-10 01:30N 27°54' W 082°25'1 2.1
2018-May-10 01:00N 27°54' W 082°26'0 0.8
2018-May-10 00:30N 27°53' W 082°26'3 5.1
2018-May-10 00:00N 27°56' W 082°26'0 1.0
2018-May-09 23:30N 27°56' W 082°26'0 0.0
2018-May-09 23:00N 27°56' W 082°26'0 0.0
2018-May-09 22:30N 27°56' W 082°26'0 0.0
2018-May-09 22:00N 27°56' W 082°26'0 0.0
2018-May-09 21:30N 27°56' W 082°26'0 0.0
2018-May-09 21:00N 27°56' W 082°26'0 0.0
2018-May-09 20:31N 27°56' W 082°26'0 0.0
2018-May-09 20:00N 27°56' W 082°26'0 0.0
2018-May-09 19:30N 27°56' W 082°26'0 0.0
2018-May-09 19:01N 27°56' W 082°26'0 0.0
2018-May-09 18:30N 27°56' W 082°26'0 0.0
2018-May-09 18:00N 27°56' W 082°26'0 0.0
2018-May-09 17:30N 27°56' W 082°26'0 0.0
2018-May-09 17:00N 27°56' W 082°26'0 0.0
2018-May-09 16:30N 27°56' W 082°26'0 0.0
2018-May-09 16:00N 27°56' W 082°26'0 0.0
2018-May-09 15:30N 27°56' W 082°26'0 0.0
2018-May-09 15:00N 27°56' W 082°26'0 0.0
2018-May-09 14:30N 27°56' W 082°26'1 2.0
2018-May-09 14:00N 27°55' W 082°26'1 1.7
2018-May-09 13:29N 27°55' W 082°27'1 2.9
2018-May-09 13:00N 27°56' W 082°27'0 0.6
2018-May-09 12:30N 27°57' W 082°27'0 0.0
2018-May-09 12:00N 27°57' W 082°27'2 3.2
2018-May-09 11:30N 27°55' W 082°27'0 0.0
2018-May-09 11:00N 27°55' W 082°27'1 2.5
2018-May-09 10:30N 27°56' W 082°27'0 0.1
2018-May-09 10:00N 27°56' W 082°27'0 0.3
2018-May-09 09:30N 27°56' W 082°27'0 0.3
2018-May-09 09:00N 27°56' W 082°27'2 4.3
2018-May-09 08:30N 27°54' W 082°26'2 3.3
2018-May-09 08:00N 27°56' W 082°26'0 0.4
2018-May-09 07:30N 27°56' W 082°26'0 0.0
2018-May-09 07:00N 27°56' W 082°26'0 0.0
2018-May-09 06:30N 27°56' W 082°26'0 0.0
2018-May-09 06:00N 27°56' W 082°26'0 0.0
2018-May-09 05:30N 27°56' W 082°26'0 0.0
2018-May-09 05:00N 27°56' W 082°26'0 0.0
2018-May-09 04:30N 27°56' W 082°26'0 0.0
2018-May-09 04:00N 27°56' W 082°26'0 0.0
2018-May-09 03:30N 27°56' W 082°26'0 0.0
2018-May-09 03:00N 27°56' W 082°26'0 0.0
2018-May-09 02:30N 27°56' W 082°26'0 0.0
2018-May-09 02:00N 27°56' W 082°26'0 0.0
2018-May-09 01:30N 27°56' W 082°26'0 0.0
2018-May-09 01:00N 27°56' W 082°26'0 0.0
2018-May-09 00:30N 27°56' W 082°26'0 0.0
2018-May-09 00:00N 27°56' W 082°26'0 0.0
2018-May-08 23:30N 27°56' W 082°26'0 0.0
2018-May-08 23:00N 27°56' W 082°26'0 0.0
2018-May-08 22:30N 27°56' W 082°26'0 0.0
2018-May-08 22:00N 27°56' W 082°26'0 0.0
2018-May-08 21:30N 27°56' W 082°26'0 0.0
2018-May-08 21:00N 27°56' W 082°26'0 0.0
2018-May-08 20:30N 27°56' W 082°26'0 0.0
2018-May-08 20:00N 27°56' W 082°26'0 0.0
2018-May-08 19:30N 27°56' W 082°26'0 0.0
2018-May-08 19:00N 27°56' W 082°26'0 0.0
2018-May-08 18:30N 27°56' W 082°26'0 0.0
2018-May-08 18:00N 27°56' W 082°26'0 0.0
2018-May-08 17:30N 27°56' W 082°26'0 0.0
2018-May-08 17:00N 27°56' W 082°26'0 0.0
2018-May-08 16:30N 27°56' W 082°26'0 0.0
2018-May-08 16:00N 27°56' W 082°26'0 0.0
2018-May-08 15:30N 27°56' W 082°26'0 0.0
2018-May-08 15:00N 27°56' W 082°26'0 0.0
2018-May-08 14:30N 27°56' W 082°26'0 0.0
2018-May-08 14:00N 27°56' W 082°26'0 0.0
2018-May-08 13:30N 27°56' W 082°26'0 0.0
2018-May-08 13:00N 27°56' W 082°26'0 0.0
2018-May-08 12:30N 27°56' W 082°26'0 0.0
2018-May-08 12:00N 27°56' W 082°26'0 0.0
2018-May-08 11:30N 27°56' W 082°26'0 0.0
2018-May-08 11:00N 27°56' W 082°26'0 0.0
2018-May-08 10:30N 27°56' W 082°26'0 0.0
2018-May-08 10:00N 27°56' W 082°26'0 0.0
2018-May-08 09:30N 27°56' W 082°26'0 0.0
2018-May-08 09:01N 27°56' W 082°26'0 0.0
2018-May-08 08:29N 27°56' W 082°26'0 0.0
2018-May-08 08:00N 27°56' W 082°26'0 0.0
2018-May-08 07:30N 27°56' W 082°26'1 1.3
2018-May-08 07:00N 27°55' W 082°26'0 1.0
2018-May-08 06:30N 27°56' W 082°26'0 0.3
2018-May-08 06:00N 27°56' W 082°26'0 0.0
2018-May-08 05:31N 27°56' W 082°26'0 0.0
2018-May-08 05:01N 27°56' W 082°26'0 0.0
2018-May-08 04:31N 27°56' W 082°26'0 0.0
2018-May-08 04:01N 27°56' W 082°26'0 0.0
2018-May-08 03:30N 27°56' W 082°26'0 0.0
2018-May-08 03:00N 27°56' W 082°26'0 0.0
2018-May-08 02:31N 27°56' W 082°26'0 0.0
2018-May-08 02:00N 27°56' W 082°26'0 0.0
2018-May-08 01:31N 27°56' W 082°26'0 0.0
2018-May-08 01:00N 27°56' W 082°26'0 0.0
2018-May-08 00:31N 27°56' W 082°26'0 0.0
2018-May-08 00:00N 27°56' W 082°26'0 0.0
2018-May-07 23:30N 27°56' W 082°26'0 0.0
2018-May-07 23:01N 27°56' W 082°26'0 0.8
2018-May-07 22:30N 27°56' W 082°26'0 0.4
2018-May-07 22:00N 27°56' W 082°26'1 1.1
2018-May-07 21:30N 27°56' W 082°26'0 0.0
2018-May-07 21:00N 27°56' W 082°26'0 0.0
2018-May-07 20:30N 27°56' W 082°26'0 0.0
2018-May-07 20:00N 27°56' W 082°26'0 0.0
2018-May-07 19:30N 27°56' W 082°26'0 0.0
2018-May-07 19:00N 27°56' W 082°26'0 0.0
2018-May-07 18:30N 27°56' W 082°26'0 0.0
2018-May-07 18:00N 27°56' W 082°26'0 0.0
2018-May-07 17:30N 27°56' W 082°26'1 2.3
2018-May-07 17:00N 27°55' W 082°27'0 0.4
2018-May-07 16:30N 27°55' W 082°27'0 0.7
2018-May-07 16:00N 27°55' W 082°27'2 3.9
2018-May-07 15:30N 27°53' W 082°27'2 3.8
2018-May-07 15:00N 27°55' W 082°26'1 2.7
2018-May-07 14:30N 27°56' W 082°26'0 0.0
2018-May-07 14:00N 27°56' W 082°26'0 0.0
2018-May-07 13:30N 27°56' W 082°26'0 0.0
2018-May-07 13:00N 27°56' W 082°26'0 0.0
2018-May-07 12:30N 27°56' W 082°26'2 3.8
2018-May-07 12:00N 27°54' W 082°25'0 0.5
2018-May-07 11:30N 27°54' W 082°26'1 2.5
2018-May-07 11:00N 27°53' W 082°26'1 2.4
2018-May-07 10:30N 27°54' W 082°26'2 3.3
2018-May-07 10:00N 27°56' W 082°26'0 0.0
2018-May-07 09:30N 27°56' W 082°26'0 0.0
2018-May-07 09:00N 27°56' W 082°26'0 0.0
2018-May-07 08:30N 27°56' W 082°26'0 0.0
2018-May-07 08:00N 27°56' W 082°26'0 0.0
2018-May-07 07:30N 27°56' W 082°26'2 3.3
2018-May-07 06:59N 27°54' W 082°26'1 2.0
2018-May-07 06:30N 27°55' W 082°27'0 0.4
2018-May-07 06:01N 27°55' W 082°27'2 4.0
2018-May-07 05:30N 27°53' W 082°26'2 3.2
2018-May-07 05:00N 27°54' W 082°26'2 3.2
2018-May-07 04:31N 27°56' W 082°26'0 0.0
2018-May-07 04:01N 27°56' W 082°26'0 0.0
2018-May-07 03:30N 27°56' W 082°26'0 0.0
2018-May-07 03:01N 27°56' W 082°26'0 0.0
2018-May-07 02:31N 27°56' W 082°26'0 0.0
2018-May-07 02:01N 27°56' W 082°26'0 0.0
2018-May-07 01:31N 27°56' W 082°26'0 0.0
2018-May-07 01:00N 27°56' W 082°26'0 0.0
2018-May-07 00:30N 27°56' W 082°26'0 0.0
2018-May-07 00:01N 27°56' W 082°26'0 0.0
2018-May-06 23:31N 27°56' W 082°26'0 0.0
2018-May-06 23:01N 27°56' W 082°26'0 0.0
2018-May-06 22:31N 27°56' W 082°26'0 0.0
2018-May-06 22:00N 27°56' W 082°26'0 0.0
2018-May-06 21:31N 27°56' W 082°26'0 0.0
2018-May-06 21:00N 27°56' W 082°26'0 0.0
2018-May-06 20:29N 27°56' W 082°26'1 2.6
2018-May-06 20:01N 27°55' W 082°27'0 0.1
2018-May-06 19:30N 27°55' W 082°27'2 3.7
2018-May-06 19:01N 27°53' W 082°26'0 0.3
2018-May-06 18:30N 27°53' W 082°26'3 5.9
2018-May-06 18:00N 27°56' W 082°26'0 0.4
2018-May-06 17:31N 27°56' W 082°26'0 0.0
2018-May-06 17:01N 27°56' W 082°26'0 0.0
2018-May-06 16:30N 27°56' W 082°26'0 0.0
2018-May-06 16:01N 27°56' W 082°26'0 0.0
2018-May-06 15:31N 27°56' W 082°26'0 0.0
2018-May-06 15:01N 27°56' W 082°26'0 0.0
2018-May-06 14:31N 27°56' W 082°26'0 0.0
2018-May-06 14:01N 27°56' W 082°26'0 0.0
2018-May-06 13:31N 27°56' W 082°26'0 0.0
2018-May-06 13:01N 27°56' W 082°26'0 0.0
2018-May-06 12:30N 27°56' W 082°26'0 0.0
2018-May-06 12:00N 27°56' W 082°26'0 0.0
2018-May-06 11:30N 27°56' W 082°26'0 0.0
2018-May-06 11:01N 27°56' W 082°26'0 0.0
2018-May-06 10:31N 27°56' W 082°26'0 0.0
2018-May-06 10:01N 27°56' W 082°26'0 0.0
2018-May-06 09:30N 27°56' W 082°26'0 0.0
2018-May-06 09:01N 27°56' W 082°26'0 0.0
2018-May-06 08:30N 27°56' W 082°26'0 0.0
2018-May-06 08:01N 27°56' W 082°26'0 0.0
2018-May-06 07:31N 27°56' W 082°26'0 0.0
2018-May-06 07:00N 27°56' W 082°26'0 0.0
2018-May-06 06:31N 27°56' W 082°26'0 0.0
2018-May-06 06:01N 27°56' W 082°26'0 0.0
2018-May-06 05:30N 27°56' W 082°26'0 0.0
2018-May-06 05:01N 27°56' W 082°26'0 0.0
2018-May-06 04:31N 27°56' W 082°26'0 0.0
2018-May-06 04:01N 27°56' W 082°26'2 3.4
2018-May-06 03:30N 27°54' W 082°26'0 0.6
2018-May-06 03:00N 27°55' W 082°26'1 2.3
2018-May-06 02:30N 27°56' W 082°26'0 0.6
2018-May-06 02:00N 27°56' W 082°26'0 0.0
2018-May-06 01:30N 27°56' W 082°26'0 0.0
2018-May-06 01:00N 27°56' W 082°26'0 0.0
2018-May-06 00:31N 27°56' W 082°26'0 0.0
2018-May-06 00:00N 27°56' W 082°26'0 0.0
2018-May-05 23:31N 27°56' W 082°26'0 0.0
2018-May-05 23:00N 27°56' W 082°26'0 0.0
2018-May-05 22:30N 27°56' W 082°26'0 0.0
2018-May-05 22:00N 27°56' W 082°26'0 0.0
2018-May-05 21:30N 27°56' W 082°26'0 0.0
2018-May-05 21:01N 27°56' W 082°26'0 0.0
2018-May-05 20:31N 27°56' W 082°26'0 0.0
2018-May-05 20:00N 27°56' W 082°26'0 0.0
2018-May-05 19:31N 27°56' W 082°26'0 0.0
2018-May-05 19:00N 27°56' W 082°26'0 0.0
2018-May-05 18:31N 27°56' W 082°26'0 0.0
2018-May-05 18:01N 27°56' W 082°26'0 0.0
2018-May-05 17:30N 27°56' W 082°26'0 0.0
2018-May-05 17:00N 27°56' W 082°26'0 0.0
2018-May-05 16:31N 27°56' W 082°26'0 0.0
2018-May-05 16:01N 27°56' W 082°26'0 0.0
2018-May-05 15:31N 27°56' W 082°26'0 0.0
2018-May-05 15:01N 27°56' W 082°26'0 0.0
2018-May-05 14:30N 27°56' W 082°26'  

Dump ship's entire track history